sensor_id;sensor_type;location;lat;lon;timestamp;P1;durP1;ratioP1;P2;durP2;ratioP2
61038;SDS011;46919;45.816;3.104;2023-04-06T00:00:47;5.85;;;3.63;;
61038;SDS011;46919;45.816;3.104;2023-04-06T00:03:14;9.15;;;4.00;;
61038;SDS011;46919;45.816;3.104;2023-04-06T00:05:39;8.27;;;4.32;;
61038;SDS011;46919;45.816;3.104;2023-04-06T00:08:05;6.25;;;3.20;;
61038;SDS011;46919;45.816;3.104;2023-04-06T00:10:30;3.72;;;2.50;;
61038;SDS011;46919;45.816;3.104;2023-04-06T00:12:57;5.35;;;2.70;;
61038;SDS011;46919;45.816;3.104;2023-04-06T00:15:23;2.67;;;2.35;;
61038;SDS011;46919;45.816;3.104;2023-04-06T00:17:49;4.30;;;2.85;;
61038;SDS011;46919;45.816;3.104;2023-04-06T00:20:15;3.05;;;2.53;;
61038;SDS011;46919;45.816;3.104;2023-04-06T00:22:41;4.03;;;2.90;;
61038;SDS011;46919;45.816;3.104;2023-04-06T00:25:07;4.07;;;2.70;;
61038;SDS011;46919;45.816;3.104;2023-04-06T00:27:33;4.03;;;2.90;;
61038;SDS011;46919;45.816;3.104;2023-04-06T00:29:58;5.03;;;2.83;;
61038;SDS011;46919;45.816;3.104;2023-04-06T00:32:23;4.38;;;2.83;;
61038;SDS011;46919;45.816;3.104;2023-04-06T00:34:49;4.82;;;2.58;;
61038;SDS011;46919;45.816;3.104;2023-04-06T00:37:14;4.68;;;2.72;;
61038;SDS011;46919;45.816;3.104;2023-04-06T00:39:40;3.88;;;3.00;;
61038;SDS011;46919;45.816;3.104;2023-04-06T00:42:07;6.68;;;3.90;;
61038;SDS011;46919;45.816;3.104;2023-04-06T00:44:38;8.68;;;5.63;;
61038;SDS011;46919;45.816;3.104;2023-04-06T00:47:05;6.72;;;3.95;;
61038;SDS011;46919;45.816;3.104;2023-04-06T00:49:31;6.30;;;3.50;;
61038;SDS011;46919;45.816;3.104;2023-04-06T00:51:57;7.18;;;3.78;;
61038;SDS011;46919;45.816;3.104;2023-04-06T00:54:23;7.00;;;3.88;;
61038;SDS011;46919;45.816;3.104;2023-04-06T00:56:48;7.20;;;4.03;;
61038;SDS011;46919;45.816;3.104;2023-04-06T00:59:14;5.80;;;3.85;;
61038;SDS011;46919;45.816;3.104;2023-04-06T01:01:39;7.20;;;3.97;;
61038;SDS011;46919;45.816;3.104;2023-04-06T01:04:05;8.38;;;4.38;;
61038;SDS011;46919;45.816;3.104;2023-04-06T01:06:30;7.22;;;4.50;;
61038;SDS011;46919;45.816;3.104;2023-04-06T01:08:56;7.93;;;4.50;;
61038;SDS011;46919;45.816;3.104;2023-04-06T01:11:21;9.93;;;4.57;;
61038;SDS011;46919;45.816;3.104;2023-04-06T01:13:47;10.30;;;5.05;;
61038;SDS011;46919;45.816;3.104;2023-04-06T01:16:15;11.93;;;5.07;;
61038;SDS011;46919;45.816;3.104;2023-04-06T01:18:40;6.57;;;4.55;;
61038;SDS011;46919;45.816;3.104;2023-04-06T01:21:07;10.15;;;5.22;;
61038;SDS011;46919;45.816;3.104;2023-04-06T01:23:34;8.63;;;5.05;;
61038;SDS011;46919;45.816;3.104;2023-04-06T01:26:00;8.77;;;5.35;;
61038;SDS011;46919;45.816;3.104;2023-04-06T01:28:25;9.60;;;6.18;;
61038;SDS011;46919;45.816;3.104;2023-04-06T01:30:51;10.85;;;5.63;;
61038;SDS011;46919;45.816;3.104;2023-04-06T01:33:16;10.75;;;5.95;;
61038;SDS011;46919;45.816;3.104;2023-04-06T01:35:41;10.45;;;6.35;;
61038;SDS011;46919;45.816;3.104;2023-04-06T01:38:07;11.60;;;6.60;;
61038;SDS011;46919;45.816;3.104;2023-04-06T01:40:32;12.30;;;6.63;;
61038;SDS011;46919;45.816;3.104;2023-04-06T01:42:58;13.80;;;8.18;;
61038;SDS011;46919;45.816;3.104;2023-04-06T01:45:23;17.00;;;9.07;;
61038;SDS011;46919;45.816;3.104;2023-04-06T01:47:49;17.63;;;9.57;;
61038;SDS011;46919;45.816;3.104;2023-04-06T01:50:14;18.20;;;9.60;;
61038;SDS011;46919;45.816;3.104;2023-04-06T01:52:40;16.42;;;9.02;;
61038;SDS011;46919;45.816;3.104;2023-04-06T01:55:08;19.05;;;9.73;;
61038;SDS011;46919;45.816;3.104;2023-04-06T01:57:33;23.05;;;11.43;;
61038;SDS011;46919;45.816;3.104;2023-04-06T02:00:00;20.88;;;11.90;;
61038;SDS011;46919;45.816;3.104;2023-04-06T02:02:25;22.75;;;11.73;;
61038;SDS011;46919;45.816;3.104;2023-04-06T02:04:50;22.70;;;11.15;;
61038;SDS011;46919;45.816;3.104;2023-04-06T02:07:16;23.77;;;10.52;;
61038;SDS011;46919;45.816;3.104;2023-04-06T02:09:41;22.42;;;10.88;;
61038;SDS011;46919;45.816;3.104;2023-04-06T02:12:06;21.85;;;10.27;;
61038;SDS011;46919;45.816;3.104;2023-04-06T02:14:32;18.02;;;10.43;;
61038;SDS011;46919;45.816;3.104;2023-04-06T02:16:57;17.27;;;10.00;;
61038;SDS011;46919;45.816;3.104;2023-04-06T02:19:23;18.92;;;8.98;;
61038;SDS011;46919;45.816;3.104;2023-04-06T02:21:48;14.95;;;8.32;;
61038;SDS011;46919;45.816;3.104;2023-04-06T02:24:14;14.75;;;8.07;;
61038;SDS011;46919;45.816;3.104;2023-04-06T02:26:39;11.25;;;6.80;;
61038;SDS011;46919;45.816;3.104;2023-04-06T02:29:07;11.70;;;6.30;;
61038;SDS011;46919;45.816;3.104;2023-04-06T02:31:32;11.10;;;5.85;;
61038;SDS011;46919;45.816;3.104;2023-04-06T02:33:58;8.52;;;4.63;;
61038;SDS011;46919;45.816;3.104;2023-04-06T02:36:23;5.75;;;4.07;;
61038;SDS011;46919;45.816;3.104;2023-04-06T02:38:48;5.88;;;4.45;;
61038;SDS011;46919;45.816;3.104;2023-04-06T02:41:14;6.43;;;3.60;;
61038;SDS011;46919;45.816;3.104;2023-04-06T02:43:40;9.02;;;4.93;;
61038;SDS011;46919;45.816;3.104;2023-04-06T02:46:05;9.60;;;5.05;;
61038;SDS011;46919;45.816;3.104;2023-04-06T02:48:30;7.22;;;5.03;;
61038;SDS011;46919;45.816;3.104;2023-04-06T02:50:56;7.03;;;4.88;;
61038;SDS011;46919;45.816;3.104;2023-04-06T02:53:21;8.55;;;4.90;;
61038;SDS011;46919;45.816;3.104;2023-04-06T02:55:47;8.30;;;4.88;;
61038;SDS011;46919;45.816;3.104;2023-04-06T02:58:12;7.22;;;4.70;;
61038;SDS011;46919;45.816;3.104;2023-04-06T03:00:37;6.47;;;4.93;;
61038;SDS011;46919;45.816;3.104;2023-04-06T03:03:03;7.80;;;5.22;;
61038;SDS011;46919;45.816;3.104;2023-04-06T03:05:28;7.30;;;5.05;;
61038;SDS011;46919;45.816;3.104;2023-04-06T03:07:54;9.60;;;5.47;;
61038;SDS011;46919;45.816;3.104;2023-04-06T03:10:19;9.57;;;6.00;;
61038;SDS011;46919;45.816;3.104;2023-04-06T03:12:45;7.40;;;5.28;;
61038;SDS011;46919;45.816;3.104;2023-04-06T03:15:10;9.57;;;5.97;;
61038;SDS011;46919;45.816;3.104;2023-04-06T03:17:36;10.15;;;6.13;;
61038;SDS011;46919;45.816;3.104;2023-04-06T03:20:01;10.30;;;5.78;;
61038;SDS011;46919;45.816;3.104;2023-04-06T03:22:28;10.10;;;5.75;;
61038;SDS011;46919;45.816;3.104;2023-04-06T03:24:54;9.43;;;5.40;;
61038;SDS011;46919;45.816;3.104;2023-04-06T03:27:20;11.05;;;5.80;;
61038;SDS011;46919;45.816;3.104;2023-04-06T03:29:45;8.10;;;5.68;;
61038;SDS011;46919;45.816;3.104;2023-04-06T03:32:11;7.82;;;4.70;;
61038;SDS011;46919;45.816;3.104;2023-04-06T03:34:36;8.85;;;5.50;;
61038;SDS011;46919;45.816;3.104;2023-04-06T03:37:02;8.00;;;4.97;;
61038;SDS011;46919;45.816;3.104;2023-04-06T03:39:27;7.85;;;4.82;;
61038;SDS011;46919;45.816;3.104;2023-04-06T03:41:52;7.82;;;5.72;;
61038;SDS011;46919;45.816;3.104;2023-04-06T03:44:18;8.88;;;5.72;;
61038;SDS011;46919;45.816;3.104;2023-04-06T03:46:43;10.50;;;5.72;;
61038;SDS011;46919;45.816;3.104;2023-04-06T03:49:09;7.15;;;5.00;;
61038;SDS011;46919;45.816;3.104;2023-04-06T03:51:34;8.13;;;5.00;;
61038;SDS011;46919;45.816;3.104;2023-04-06T03:54:00;7.60;;;5.00;;
61038;SDS011;46919;45.816;3.104;2023-04-06T03:56:25;7.38;;;4.88;;
61038;SDS011;46919;45.816;3.104;2023-04-06T03:58:51;7.82;;;5.20;;
61038;SDS011;46919;45.816;3.104;2023-04-06T04:01:17;8.15;;;5.10;;
61038;SDS011;46919;45.816;3.104;2023-04-06T04:03:44;9.82;;;5.30;;
61038;SDS011;46919;45.816;3.104;2023-04-06T04:06:10;8.35;;;5.10;;
61038;SDS011;46919;45.816;3.104;2023-04-06T04:08:35;8.15;;;4.80;;
61038;SDS011;46919;45.816;3.104;2023-04-06T04:11:01;10.07;;;5.15;;
61038;SDS011;46919;45.816;3.104;2023-04-06T04:13:26;6.13;;;4.75;;
61038;SDS011;46919;45.816;3.104;2023-04-06T04:15:52;8.70;;;5.07;;
61038;SDS011;46919;45.816;3.104;2023-04-06T04:18:18;9.13;;;5.47;;
61038;SDS011;46919;45.816;3.104;2023-04-06T04:20:43;8.38;;;5.38;;
61038;SDS011;46919;45.816;3.104;2023-04-06T04:23:09;9.18;;;4.88;;
61038;SDS011;46919;45.816;3.104;2023-04-06T04:25:35;9.10;;;5.43;;
61038;SDS011;46919;45.816;3.104;2023-04-06T04:28:00;9.23;;;5.15;;
61038;SDS011;46919;45.816;3.104;2023-04-06T04:30:26;8.75;;;5.30;;
61038;SDS011;46919;45.816;3.104;2023-04-06T04:32:51;8.35;;;4.90;;
61038;SDS011;46919;45.816;3.104;2023-04-06T04:35:16;9.05;;;5.55;;
61038;SDS011;46919;45.816;3.104;2023-04-06T04:37:42;9.25;;;5.10;;
61038;SDS011;46919;45.816;3.104;2023-04-06T04:40:07;8.30;;;4.57;;
61038;SDS011;46919;45.816;3.104;2023-04-06T04:42:33;7.38;;;4.80;;
61038;SDS011;46919;45.816;3.104;2023-04-06T04:44:59;6.93;;;4.40;;
61038;SDS011;46919;45.816;3.104;2023-04-06T04:47:25;7.82;;;5.07;;
61038;SDS011;46919;45.816;3.104;2023-04-06T04:49:50;7.32;;;4.57;;
61038;SDS011;46919;45.816;3.104;2023-04-06T04:52:15;6.45;;;4.97;;
61038;SDS011;46919;45.816;3.104;2023-04-06T04:54:41;8.25;;;5.20;;
61038;SDS011;46919;45.816;3.104;2023-04-06T04:57:06;10.20;;;5.32;;
61038;SDS011;46919;45.816;3.104;2023-04-06T04:59:32;7.95;;;4.75;;
61038;SDS011;46919;45.816;3.104;2023-04-06T05:01:58;9.27;;;5.05;;
61038;SDS011;46919;45.816;3.104;2023-04-06T05:04:24;6.43;;;4.40;;
61038;SDS011;46919;45.816;3.104;2023-04-06T05:06:49;7.28;;;5.15;;
61038;SDS011;46919;45.816;3.104;2023-04-06T05:09:15;7.47;;;4.70;;
61038;SDS011;46919;45.816;3.104;2023-04-06T05:11:40;7.50;;;4.30;;
61038;SDS011;46919;45.816;3.104;2023-04-06T05:14:06;7.60;;;4.68;;
61038;SDS011;46919;45.816;3.104;2023-04-06T05:16:32;6.55;;;4.72;;
61038;SDS011;46919;45.816;3.104;2023-04-06T05:18:59;8.48;;;4.95;;
61038;SDS011;46919;45.816;3.104;2023-04-06T05:21:24;7.78;;;5.05;;
61038;SDS011;46919;45.816;3.104;2023-04-06T05:23:51;6.97;;;5.18;;
61038;SDS011;46919;45.816;3.104;2023-04-06T05:26:16;7.45;;;5.10;;
61038;SDS011;46919;45.816;3.104;2023-04-06T05:28:42;7.43;;;5.32;;
61038;SDS011;46919;45.816;3.104;2023-04-06T05:31:09;8.18;;;4.95;;
61038;SDS011;46919;45.816;3.104;2023-04-06T05:33:34;8.85;;;5.07;;
61038;SDS011;46919;45.816;3.104;2023-04-06T05:36:00;8.40;;;5.07;;
61038;SDS011;46919;45.816;3.104;2023-04-06T05:38:26;8.80;;;5.05;;
61038;SDS011;46919;45.816;3.104;2023-04-06T05:40:51;7.88;;;4.95;;
61038;SDS011;46919;45.816;3.104;2023-04-06T05:43:16;9.05;;;5.38;;
61038;SDS011;46919;45.816;3.104;2023-04-06T05:45:43;8.63;;;4.85;;
61038;SDS011;46919;45.816;3.104;2023-04-06T05:48:10;7.72;;;4.75;;
61038;SDS011;46919;45.816;3.104;2023-04-06T05:50:35;8.65;;;5.25;;
61038;SDS011;46919;45.816;3.104;2023-04-06T05:53:01;10.98;;;5.47;;
61038;SDS011;46919;45.816;3.104;2023-04-06T05:55:26;11.68;;;6.15;;
61038;SDS011;46919;45.816;3.104;2023-04-06T05:57:52;9.27;;;5.40;;
61038;SDS011;46919;45.816;3.104;2023-04-06T06:00:18;9.10;;;6.20;;
61038;SDS011;46919;45.816;3.104;2023-04-06T06:02:44;15.00;;;9.25;;
61038;SDS011;46919;45.816;3.104;2023-04-06T06:05:10;8.25;;;4.88;;
61038;SDS011;46919;45.816;3.104;2023-04-06T06:07:35;8.45;;;5.43;;
61038;SDS011;46919;45.816;3.104;2023-04-06T06:10:01;6.95;;;5.13;;
61038;SDS011;46919;45.816;3.104;2023-04-06T06:12:27;12.05;;;5.72;;
61038;SDS011;46919;45.816;3.104;2023-04-06T06:14:53;8.73;;;4.40;;
61038;SDS011;46919;45.816;3.104;2023-04-06T06:17:18;7.60;;;4.88;;
61038;SDS011;46919;45.816;3.104;2023-04-06T06:19:44;13.02;;;7.38;;
61038;SDS011;46919;45.816;3.104;2023-04-06T06:22:09;19.45;;;9.55;;
61038;SDS011;46919;45.816;3.104;2023-04-06T06:24:35;25.65;;;13.25;;
61038;SDS011;46919;45.816;3.104;2023-04-06T06:27:00;24.75;;;13.05;;
61038;SDS011;46919;45.816;3.104;2023-04-06T06:29:26;28.30;;;13.55;;
61038;SDS011;46919;45.816;3.104;2023-04-06T06:31:51;20.67;;;11.77;;
61038;SDS011;46919;45.816;3.104;2023-04-06T06:34:16;22.40;;;11.55;;
61038;SDS011;46919;45.816;3.104;2023-04-06T06:36:42;13.13;;;7.63;;
61038;SDS011;46919;45.816;3.104;2023-04-06T06:39:07;16.95;;;8.95;;
61038;SDS011;46919;45.816;3.104;2023-04-06T06:41:33;17.50;;;10.05;;
61038;SDS011;46919;45.816;3.104;2023-04-06T06:43:58;10.48;;;6.43;;
61038;SDS011;46919;45.816;3.104;2023-04-06T06:46:23;13.40;;;7.13;;
61038;SDS011;46919;45.816;3.104;2023-04-06T06:48:49;15.52;;;8.38;;
61038;SDS011;46919;45.816;3.104;2023-04-06T06:51:15;12.95;;;7.38;;
61038;SDS011;46919;45.816;3.104;2023-04-06T06:53:40;11.68;;;6.93;;
61038;SDS011;46919;45.816;3.104;2023-04-06T06:56:05;13.00;;;6.93;;
61038;SDS011;46919;45.816;3.104;2023-04-06T06:58:31;11.75;;;6.82;;
61038;SDS011;46919;45.816;3.104;2023-04-06T07:00:57;9.48;;;6.45;;
61038;SDS011;46919;45.816;3.104;2023-04-06T07:03:23;10.32;;;6.07;;
61038;SDS011;46919;45.816;3.104;2023-04-06T07:05:49;11.85;;;6.65;;
61038;SDS011;46919;45.816;3.104;2023-04-06T07:08:18;11.10;;;6.20;;
61038;SDS011;46919;45.816;3.104;2023-04-06T07:10:44;13.07;;;6.65;;
61038;SDS011;46919;45.816;3.104;2023-04-06T07:13:10;8.95;;;5.63;;
61038;SDS011;46919;45.816;3.104;2023-04-06T07:15:35;10.60;;;5.95;;
61038;SDS011;46919;45.816;3.104;2023-04-06T07:18:02;10.65;;;5.85;;
61038;SDS011;46919;45.816;3.104;2023-04-06T07:20:27;10.43;;;5.65;;
61038;SDS011;46919;45.816;3.104;2023-04-06T07:22:53;9.32;;;5.60;;
61038;SDS011;46919;45.816;3.104;2023-04-06T07:25:18;8.20;;;5.55;;
61038;SDS011;46919;45.816;3.104;2023-04-06T07:27:44;7.45;;;5.18;;
61038;SDS011;46919;45.816;3.104;2023-04-06T07:30:09;8.13;;;5.18;;
61038;SDS011;46919;45.816;3.104;2023-04-06T07:32:35;7.15;;;4.40;;
61038;SDS011;46919;45.816;3.104;2023-04-06T07:35:01;6.35;;;3.80;;
61038;SDS011;46919;45.816;3.104;2023-04-06T07:37:26;5.40;;;3.67;;
61038;SDS011;46919;45.816;3.104;2023-04-06T07:39:52;5.43;;;3.60;;
61038;SDS011;46919;45.816;3.104;2023-04-06T07:42:17;7.18;;;4.18;;
61038;SDS011;46919;45.816;3.104;2023-04-06T07:44:43;6.55;;;4.30;;
61038;SDS011;46919;45.816;3.104;2023-04-06T07:47:08;6.60;;;4.28;;
61038;SDS011;46919;45.816;3.104;2023-04-06T07:49:34;5.93;;;3.58;;
61038;SDS011;46919;45.816;3.104;2023-04-06T07:51:59;6.35;;;4.30;;
61038;SDS011;46919;45.816;3.104;2023-04-06T07:54:27;8.20;;;3.97;;
61038;SDS011;46919;45.816;3.104;2023-04-06T07:56:53;6.88;;;3.90;;
61038;SDS011;46919;45.816;3.104;2023-04-06T07:59:18;6.03;;;4.00;;
61038;SDS011;46919;45.816;3.104;2023-04-06T08:01:44;5.47;;;3.60;;
61038;SDS011;46919;45.816;3.104;2023-04-06T08:04:09;4.47;;;3.55;;
61038;SDS011;46919;45.816;3.104;2023-04-06T08:06:35;6.88;;;3.95;;
61038;SDS011;46919;45.816;3.104;2023-04-06T08:09:01;6.55;;;4.03;;
61038;SDS011;46919;45.816;3.104;2023-04-06T08:11:27;8.70;;;4.40;;
61038;SDS011;46919;45.816;3.104;2023-04-06T08:13:52;5.68;;;3.63;;
61038;SDS011;46919;45.816;3.104;2023-04-06T08:16:18;4.78;;;3.28;;
61038;SDS011;46919;45.816;3.104;2023-04-06T08:18:44;4.88;;;3.05;;
61038;SDS011;46919;45.816;3.104;2023-04-06T08:21:09;5.22;;;3.20;;
61038;SDS011;46919;45.816;3.104;2023-04-06T08:23:36;5.35;;;3.53;;
61038;SDS011;46919;45.816;3.104;2023-04-06T08:26:01;7.63;;;3.60;;
61038;SDS011;46919;45.816;3.104;2023-04-06T08:28:26;4.18;;;3.47;;
61038;SDS011;46919;45.816;3.104;2023-04-06T08:30:52;5.20;;;3.50;;
61038;SDS011;46919;45.816;3.104;2023-04-06T08:33:17;6.75;;;3.80;;
61038;SDS011;46919;45.816;3.104;2023-04-06T08:35:43;4.88;;;3.40;;
61038;SDS011;46919;45.816;3.104;2023-04-06T08:38:08;6.13;;;3.63;;
61038;SDS011;46919;45.816;3.104;2023-04-06T08:40:39;8.55;;;3.90;;
61038;SDS011;46919;45.816;3.104;2023-04-06T08:43:09;6.70;;;3.80;;
61038;SDS011;46919;45.816;3.104;2023-04-06T08:45:38;5.53;;;3.50;;
61038;SDS011;46919;45.816;3.104;2023-04-06T08:48:04;7.18;;;4.07;;
61038;SDS011;46919;45.816;3.104;2023-04-06T08:50:32;6.30;;;3.88;;
61038;SDS011;46919;45.816;3.104;2023-04-06T08:52:57;6.32;;;3.40;;
61038;SDS011;46919;45.816;3.104;2023-04-06T08:55:24;5.22;;;3.83;;
61038;SDS011;46919;45.816;3.104;2023-04-06T08:57:50;10.70;;;4.10;;
61038;SDS011;46919;45.816;3.104;2023-04-06T09:00:19;4.82;;;3.33;;
61038;SDS011;46919;45.816;3.104;2023-04-06T09:02:46;7.18;;;3.90;;
61038;SDS011;46919;45.816;3.104;2023-04-06T09:05:14;6.53;;;3.75;;
61038;SDS011;46919;45.816;3.104;2023-04-06T09:07:40;6.85;;;3.47;;
61038;SDS011;46919;45.816;3.104;2023-04-06T09:10:06;6.25;;;3.88;;
61038;SDS011;46919;45.816;3.104;2023-04-06T09:12:32;6.57;;;4.20;;
61038;SDS011;46919;45.816;3.104;2023-04-06T09:14:58;9.30;;;4.07;;
61038;SDS011;46919;45.816;3.104;2023-04-06T09:17:25;8.80;;;5.20;;
61038;SDS011;46919;45.816;3.104;2023-04-06T09:19:52;7.18;;;5.00;;
61038;SDS011;46919;45.816;3.104;2023-04-06T09:22:18;5.25;;;3.70;;
61038;SDS011;46919;45.816;3.104;2023-04-06T09:27:11;6.25;;;4.03;;
61038;SDS011;46919;45.816;3.104;2023-04-06T09:29:37;6.82;;;4.25;;
61038;SDS011;46919;45.816;3.104;2023-04-06T09:32:03;8.38;;;4.40;;
61038;SDS011;46919;45.816;3.104;2023-04-06T09:34:29;7.28;;;4.10;;
61038;SDS011;46919;45.816;3.104;2023-04-06T09:36:54;6.25;;;3.90;;
61038;SDS011;46919;45.816;3.104;2023-04-06T09:39:21;5.35;;;3.72;;
61038;SDS011;46919;45.816;3.104;2023-04-06T09:41:53;7.30;;;4.20;;
61038;SDS011;46919;45.816;3.104;2023-04-06T09:44:22;6.05;;;3.88;;
61038;SDS011;46919;45.816;3.104;2023-04-06T09:46:49;4.82;;;3.20;;
61038;SDS011;46919;45.816;3.104;2023-04-06T09:49:18;7.57;;;3.35;;
61038;SDS011;46919;45.816;3.104;2023-04-06T09:51:49;4.85;;;3.22;;
61038;SDS011;46919;45.816;3.104;2023-04-06T09:54:20;7.35;;;3.20;;
61038;SDS011;46919;45.816;3.104;2023-04-06T09:56:47;6.25;;;3.58;;
61038;SDS011;46919;45.816;3.104;2023-04-06T09:59:39;8.80;;;3.22;;
61038;SDS011;46919;45.816;3.104;2023-04-06T10:02:29;6.07;;;3.88;;
61038;SDS011;46919;45.816;3.104;2023-04-06T10:05:20;5.43;;;3.30;;
61038;SDS011;46919;45.816;3.104;2023-04-06T10:07:47;6.32;;;3.42;;
61038;SDS011;46919;45.816;3.104;2023-04-06T10:10:16;3.95;;;2.88;;
61038;SDS011;46919;45.816;3.104;2023-04-06T10:12:41;4.63;;;2.97;;
61038;SDS011;46919;45.816;3.104;2023-04-06T10:15:07;4.53;;;3.08;;
61038;SDS011;46919;45.816;3.104;2023-04-06T10:17:33;3.33;;;2.35;;
61038;SDS011;46919;45.816;3.104;2023-04-06T10:20:09;4.30;;;2.65;;
61038;SDS011;46919;45.816;3.104;2023-04-06T10:22:49;6.28;;;3.17;;
61038;SDS011;46919;45.816;3.104;2023-04-06T10:25:28;4.55;;;3.17;;
61038;SDS011;46919;45.816;3.104;2023-04-06T10:28:07;6.13;;;3.45;;
61038;SDS011;46919;45.816;3.104;2023-04-06T10:30:34;6.93;;;3.10;;
61038;SDS011;46919;45.816;3.104;2023-04-06T10:33:13;3.92;;;2.72;;
61038;SDS011;46919;45.816;3.104;2023-04-06T10:35:39;4.15;;;2.00;;
61038;SDS011;46919;45.816;3.104;2023-04-06T10:38:05;3.40;;;1.90;;
61038;SDS011;46919;45.816;3.104;2023-04-06T10:40:30;2.10;;;1.58;;
61038;SDS011;46919;45.816;3.104;2023-04-06T10:43:07;2.95;;;1.88;;
61038;SDS011;46919;45.816;3.104;2023-04-06T10:45:37;4.40;;;2.33;;
61038;SDS011;46919;45.816;3.104;2023-04-06T10:48:17;4.15;;;2.50;;
61038;SDS011;46919;45.816;3.104;2023-04-06T10:50:44;4.13;;;2.70;;
61038;SDS011;46919;45.816;3.104;2023-04-06T10:53:20;3.75;;;2.65;;
61038;SDS011;46919;45.816;3.104;2023-04-06T10:55:52;4.85;;;3.00;;
61038;SDS011;46919;45.816;3.104;2023-04-06T10:58:20;4.90;;;2.90;;
61038;SDS011;46919;45.816;3.104;2023-04-06T11:00:49;5.55;;;3.08;;
61038;SDS011;46919;45.816;3.104;2023-04-06T11:03:15;5.05;;;2.90;;
61038;SDS011;46919;45.816;3.104;2023-04-06T11:05:47;4.65;;;2.97;;
61038;SDS011;46919;45.816;3.104;2023-04-06T11:10:48;5.10;;;3.05;;
61038;SDS011;46919;45.816;3.104;2023-04-06T11:13:14;5.70;;;3.17;;
61038;SDS011;46919;45.816;3.104;2023-04-06T11:15:40;5.47;;;3.08;;
61038;SDS011;46919;45.816;3.104;2023-04-06T11:18:05;4.82;;;2.92;;
61038;SDS011;46919;45.816;3.104;2023-04-06T11:20:30;3.97;;;2.58;;
61038;SDS011;46919;45.816;3.104;2023-04-06T11:22:56;3.85;;;2.75;;
61038;SDS011;46919;45.816;3.104;2023-04-06T11:25:23;6.57;;;3.05;;
61038;SDS011;46919;45.816;3.104;2023-04-06T11:27:49;4.30;;;3.10;;
61038;SDS011;46919;45.816;3.104;2023-04-06T11:30:15;5.65;;;3.30;;
61038;SDS011;46919;45.816;3.104;2023-04-06T11:32:42;5.90;;;3.58;;
61038;SDS011;46919;45.816;3.104;2023-04-06T11:35:22;5.00;;;3.03;;
61038;SDS011;46919;45.816;3.104;2023-04-06T11:37:51;4.80;;;3.58;;
61038;SDS011;46919;45.816;3.104;2023-04-06T11:40:23;5.95;;;3.10;;
61038;SDS011;46919;45.816;3.104;2023-04-06T11:45:18;5.38;;;3.22;;
61038;SDS011;46919;45.816;3.104;2023-04-06T11:47:44;5.22;;;3.40;;
61038;SDS011;46919;45.816;3.104;2023-04-06T11:50:10;6.15;;;3.50;;
61038;SDS011;46919;45.816;3.104;2023-04-06T11:52:38;6.18;;;3.47;;
61038;SDS011;46919;45.816;3.104;2023-04-06T11:55:14;4.95;;;3.08;;
61038;SDS011;46919;45.816;3.104;2023-04-06T11:57:42;5.07;;;3.28;;
61038;SDS011;46919;45.816;3.104;2023-04-06T12:00:08;4.03;;;3.15;;
61038;SDS011;46919;45.816;3.104;2023-04-06T12:02:35;5.40;;;3.03;;
61038;SDS011;46919;45.816;3.104;2023-04-06T12:05:02;6.22;;;2.83;;
61038;SDS011;46919;45.816;3.104;2023-04-06T12:07:30;5.15;;;3.00;;
61038;SDS011;46919;45.816;3.104;2023-04-06T12:09:55;5.35;;;3.17;;
61038;SDS011;46919;45.816;3.104;2023-04-06T12:12:21;5.90;;;3.28;;
61038;SDS011;46919;45.816;3.104;2023-04-06T12:14:46;4.50;;;3.25;;
61038;SDS011;46919;45.816;3.104;2023-04-06T12:17:12;6.03;;;2.85;;
61038;SDS011;46919;45.816;3.104;2023-04-06T12:19:37;5.47;;;3.13;;
61038;SDS011;46919;45.816;3.104;2023-04-06T12:22:02;6.07;;;2.97;;
61038;SDS011;46919;45.816;3.104;2023-04-06T12:24:28;5.75;;;3.67;;
61038;SDS011;46919;45.816;3.104;2023-04-06T12:26:54;6.60;;;3.00;;
61038;SDS011;46919;45.816;3.104;2023-04-06T12:29:20;6.70;;;3.60;;
61038;SDS011;46919;45.816;3.104;2023-04-06T12:31:45;8.88;;;3.35;;
61038;SDS011;46919;45.816;3.104;2023-04-06T12:34:11;5.40;;;3.20;;
61038;SDS011;46919;45.816;3.104;2023-04-06T12:36:37;6.28;;;3.22;;
61038;SDS011;46919;45.816;3.104;2023-04-06T12:39:04;4.15;;;2.90;;
61038;SDS011;46919;45.816;3.104;2023-04-06T12:41:30;4.70;;;3.17;;
61038;SDS011;46919;45.816;3.104;2023-04-06T12:43:55;5.05;;;3.13;;
61038;SDS011;46919;45.816;3.104;2023-04-06T12:46:21;4.25;;;2.97;;
61038;SDS011;46919;45.816;3.104;2023-04-06T12:48:48;3.80;;;2.50;;
61038;SDS011;46919;45.816;3.104;2023-04-06T12:51:13;5.80;;;2.85;;
61038;SDS011;46919;45.816;3.104;2023-04-06T12:53:38;8.68;;;2.78;;
61038;SDS011;46919;45.816;3.104;2023-04-06T12:56:22;6.82;;;2.90;;
61038;SDS011;46919;45.816;3.104;2023-04-06T12:58:50;4.70;;;2.85;;
61038;SDS011;46919;45.816;3.104;2023-04-06T13:01:16;3.30;;;2.47;;
61038;SDS011;46919;45.816;3.104;2023-04-06T13:03:41;3.40;;;2.03;;
61038;SDS011;46919;45.816;3.104;2023-04-06T13:06:07;4.78;;;2.55;;
61038;SDS011;46919;45.816;3.104;2023-04-06T13:08:33;4.35;;;2.47;;
61038;SDS011;46919;45.816;3.104;2023-04-06T13:10:59;4.20;;;2.53;;
61038;SDS011;46919;45.816;3.104;2023-04-06T13:13:26;4.85;;;2.45;;
61038;SDS011;46919;45.816;3.104;2023-04-06T13:15:53;6.57;;;2.60;;
61038;SDS011;46919;45.816;3.104;2023-04-06T13:18:20;5.03;;;2.47;;
61038;SDS011;46919;45.816;3.104;2023-04-06T13:20:47;6.00;;;2.70;;
61038;SDS011;46919;45.816;3.104;2023-04-06T13:23:13;2.92;;;2.40;;
61038;SDS011;46919;45.816;3.104;2023-04-06T13:25:39;3.20;;;2.30;;
61038;SDS011;46919;45.816;3.104;2023-04-06T13:28:05;3.97;;;2.60;;
61038;SDS011;46919;45.816;3.104;2023-04-06T13:30:30;3.70;;;2.30;;
61038;SDS011;46919;45.816;3.104;2023-04-06T13:32:55;3.95;;;2.53;;
61038;SDS011;46919;45.816;3.104;2023-04-06T13:35:21;4.40;;;2.28;;
61038;SDS011;46919;45.816;3.104;2023-04-06T13:37:46;2.13;;;1.83;;
61038;SDS011;46919;45.816;3.104;2023-04-06T13:40:13;2.55;;;1.80;;
61038;SDS011;46919;45.816;3.104;2023-04-06T13:42:38;2.17;;;1.38;;
61038;SDS011;46919;45.816;3.104;2023-04-06T13:45:06;2.22;;;1.58;;
61038;SDS011;46919;45.816;3.104;2023-04-06T13:47:31;1.77;;;1.33;;
61038;SDS011;46919;45.816;3.104;2023-04-06T13:49:57;1.73;;;1.60;;
61038;SDS011;46919;45.816;3.104;2023-04-06T13:52:22;1.52;;;1.33;;
61038;SDS011;46919;45.816;3.104;2023-04-06T13:54:48;3.25;;;1.73;;
61038;SDS011;46919;45.816;3.104;2023-04-06T13:57:15;2.17;;;1.70;;
61038;SDS011;46919;45.816;3.104;2023-04-06T13:59:41;1.50;;;1.40;;
61038;SDS011;46919;45.816;3.104;2023-04-06T14:02:06;3.15;;;1.40;;
61038;SDS011;46919;45.816;3.104;2023-04-06T14:04:33;2.80;;;1.42;;
61038;SDS011;46919;45.816;3.104;2023-04-06T14:07:00;4.15;;;1.52;;
61038;SDS011;46919;45.816;3.104;2023-04-06T14:09:27;3.08;;;1.85;;
61038;SDS011;46919;45.816;3.104;2023-04-06T14:11:53;2.58;;;1.50;;
61038;SDS011;46919;45.816;3.104;2023-04-06T14:14:19;2.05;;;1.50;;
61038;SDS011;46919;45.816;3.104;2023-04-06T14:16:44;2.20;;;1.40;;
61038;SDS011;46919;45.816;3.104;2023-04-06T14:19:11;3.85;;;1.40;;
61038;SDS011;46919;45.816;3.104;2023-04-06T14:21:41;3.40;;;1.13;;
61038;SDS011;46919;45.816;3.104;2023-04-06T14:24:07;1.40;;;1.08;;
61038;SDS011;46919;45.816;3.104;2023-04-06T14:26:36;1.00;;;0.82;;
61038;SDS011;46919;45.816;3.104;2023-04-06T14:29:05;1.25;;;0.80;;
61038;SDS011;46919;45.816;3.104;2023-04-06T14:31:31;3.53;;;1.00;;
61038;SDS011;46919;45.816;3.104;2023-04-06T14:33:56;2.78;;;1.20;;
61038;SDS011;46919;45.816;3.104;2023-04-06T14:36:22;1.35;;;0.95;;
61038;SDS011;46919;45.816;3.104;2023-04-06T14:38:48;0.88;;;0.80;;
61038;SDS011;46919;45.816;3.104;2023-04-06T14:41:17;1.33;;;0.98;;
61038;SDS011;46919;45.816;3.104;2023-04-06T14:43:45;2.55;;;0.80;;
61038;SDS011;46919;45.816;3.104;2023-04-06T14:46:12;1.08;;;0.90;;
61038;SDS011;46919;45.816;3.104;2023-04-06T14:48:38;1.02;;;1.00;;